Time;durP1;ratioP1;P1;durP2;ratioP2;P2;SDS_P1;SDS_P2;PMS_P1;PMS_P2;Temp;Humidity;BMP_temperature;BMP_pressure;BME280_temperature;BME280_humidity;BME280_pressure;Samples;Min_cycle;Max_cycle;Signal;HPM_P1;HPM_P2
2022/05/13 00:01:31;;;;;;;;;1.25;1.25;;;;;16.10;47.21;101891.94;4992837;28;48198;-88
2022/05/13 00:03:57;;;;;;;;;2.00;2.00;;;;;16.04;47.10;101889.34;4975091;28;45398;-86
2022/05/13 00:06:25;;;;;;;;;3.75;3.75;;;;;16.04;47.01;101884.91;4981869;28;46255;-87
2022/05/13 00:08:51;;;;;;;;;3.00;3.00;;;;;15.97;46.84;101877.88;4982883;28;45619;-86
2022/05/13 00:11:17;;;;;;;;;2.75;1.75;;;;;15.97;46.88;101888.47;4976813;28;47741;-81
2022/05/13 00:13:42;;;;;;;;;1.25;1.25;;;;;15.93;47.10;101891.16;4974859;28;45633;-85
2022/05/13 00:16:08;;;;;;;;;2.00;1.00;;;;;15.88;47.56;101883.25;4977617;28;45402;-81
2022/05/13 00:18:34;;;;;;;;;1.25;1.25;;;;;15.84;47.32;101886.81;4962641;28;45345;-80
2022/05/13 00:21:02;;;;;;;;;2.75;2.75;;;;;15.82;47.03;101876.22;4963493;28;46522;-80
2022/05/13 00:23:28;;;;;;;;;1.00;0.00;;;;;15.77;47.34;101878.03;4990557;28;45342;-80
2022/05/13 00:25:54;;;;;;;;;2.50;2.00;;;;;15.79;47.01;101886.84;4980024;28;45663;-80
2022/05/13 00:28:19;;;;;;;;;3.25;1.25;;;;;15.73;47.29;101881.56;4982782;28;45514;-80
2022/05/13 00:30:48;;;;;;;;;2.67;2.00;;;;;15.77;47.25;101878.03;4986191;28;46704;-80
2022/05/13 00:33:14;;;;;;;;;3.25;2.50;;;;;15.71;47.56;101879.81;4974328;28;45280;-79
2022/05/13 00:35:43;;;;;;;;;3.50;2.50;;;;;15.71;47.12;101877.16;4973294;28;45201;-80
2022/05/13 00:38:08;;;;;;;;;2.00;2.00;;;;;15.71;47.31;101879.81;4982106;28;45463;-80
2022/05/13 00:40:35;;;;;;;;;1.75;1.00;;;;;15.70;47.52;101878.06;4967072;28;46848;-80
2022/05/13 00:43:06;;;;;;;;;1.25;0.50;;;;;15.67;47.26;101884.25;4980191;28;45303;-80
2022/05/13 00:45:33;;;;;;;;;2.00;2.00;;;;;15.66;47.23;101878.06;4979976;28;45501;-80
2022/05/13 00:47:59;;;;;;;;;2.00;1.00;;;;;15.64;47.87;101877.19;4962458;28;45460;-80
2022/05/13 00:50:25;;;;;;;;;2.75;2.00;;;;;15.59;47.43;101876.34;4962407;28;47086;-80
2022/05/13 00:52:52;;;;;;;;;1.75;1.00;;;;;15.59;47.74;101878.09;4965380;28;45502;-80
2022/05/13 00:55:25;;;;;;;;;4.00;4.00;;;;;15.55;47.58;101879.00;4976735;28;45255;-81
2022/05/13 00:57:52;;;;;;;;;5.50;4.50;;;;;15.48;47.97;101874.66;4990261;28;45484;-81
2022/05/13 01:00:18;;;;;;;;;5.50;4.25;;;;;15.45;48.03;101878.19;4979257;28;46542;-81
2022/05/13 01:02:44;;;;;;;;;4.50;4.50;;;;;15.45;48.20;101875.53;4963342;28;45328;-81
2022/05/13 01:05:15;;;;;;;;;4.50;3.25;;;;;15.43;48.34;101878.19;4980982;28;45226;-80
2022/05/13 01:07:41;;;;;;;;;2.75;2.50;;;;;15.43;48.10;101886.16;4980675;28;45225;-80
2022/05/13 01:10:13;;;;;;;;;3.25;3.25;;;;;15.43;48.53;101894.13;4962683;28;45396;-80
2022/05/13 01:12:42;;;;;;;;;1.75;1.75;;;;;15.41;48.43;101887.94;4962473;28;45791;-80
2022/05/13 01:15:11;;;;;;;;;4.25;4.25;;;;;15.41;48.02;101885.28;4985362;28;45435;-80
2022/05/13 01:20:29;;;;;;;;;2.25;1.50;;;;;15.31;47.83;101880.03;4979325;28;45450;-80
2022/05/13 01:23:01;;;;;;;;;3.00;2.00;;;;;15.32;48.63;101884.47;4970653;28;45500;-80
2022/05/13 01:25:29;;;;;;;;;4.00;3.00;;;;;15.27;48.34;101886.25;4965124;28;45418;-80
2022/05/13 01:27:58;;;;;;;;;3.00;3.00;;;;;15.30;48.21;101886.22;4982645;28;45172;-80
2022/05/13 01:30:27;;;;;;;;;3.00;3.00;;;;;15.25;48.67;101888.91;4982670;28;46396;-80
2022/05/13 01:32:53;;;;;;;;;2.75;2.75;;;;;15.20;48.83;101877.41;4982555;28;45182;-80
2022/05/13 01:35:20;;;;;;;;;1.75;1.75;;;;;15.24;48.71;101895.09;4982872;28;45247;-80
2022/05/13 01:37:46;;;;;;;;;4.25;4.00;;;;;15.17;48.58;101888.06;4983539;28;45663;-80
2022/05/13 01:40:12;;;;;;;;;3.25;3.25;;;;;15.17;48.76;101893.34;4982697;28;45539;-80
2022/05/13 01:42:58;;;;;;;;;3.00;3.00;;;;;15.16;49.07;101897.78;4964877;28;45338;-79
2022/05/13 01:45:23;;;;;;;;;2.25;2.25;;;;;15.11;49.11;101893.38;4964151;28;45449;-80
2022/05/13 01:47:49;;;;;;;;;2.00;2.00;;;;;15.08;48.93;101896.94;4982648;28;45409;-79
2022/05/13 01:50:14;;;;;;;;;3.00;3.00;;;;;15.03;49.07;101881.94;4982259;28;46164;-80
2022/05/13 01:52:40;;;;;;;;;3.25;3.25;;;;;15.03;49.28;101887.22;4989939;28;45348;-80
2022/05/13 01:55:05;;;;;;;;;1.00;1.00;;;;;15.01;49.47;101892.53;4982556;28;45560;-80
2022/05/13 01:57:31;;;;;;;;;3.25;3.00;;;;;14.97;49.67;101886.38;4990352;28;45451;-79
2022/05/13 01:59:57;;;;;;;;;3.50;3.50;;;;;14.95;49.68;101888.13;5001178;28;45210;-80
2022/05/13 02:02:22;;;;;;;;;2.50;2.50;;;;;14.89;49.32;101880.22;4982566;28;45283;-80
2022/05/13 02:04:48;;;;;;;;;3.25;3.25;;;;;14.83;49.31;101876.69;4964652;28;45327;-80
2022/05/13 02:07:13;;;;;;;;;2.50;2.50;;;;;14.82;49.86;101880.22;4982411;28;45590;-80
2022/05/13 02:09:38;;;;;;;;;1.25;1.25;;;;;14.81;49.87;101883.75;4964453;28;46834;-80
2022/05/13 02:12:05;;;;;;;;;1.00;1.00;;;;;14.81;49.77;101889.97;4989145;28;45373;-80
2022/05/13 02:14:31;;;;;;;;;4.25;4.25;;;;;14.81;49.93;101894.34;4988082;28;45405;-80
2022/05/13 02:16:56;;;;;;;;;1.75;1.75;;;;;14.74;49.81;101881.13;4964508;28;45593;-80
2022/05/13 02:19:21;;;;;;;;;2.25;2.25;;;;;14.72;49.83;101885.53;4964328;28;47152;-79
2022/05/13 02:21:48;;;;;;;;;3.75;3.75;;;;;14.74;49.95;101888.19;4967337;28;45402;-79
2022/05/13 02:24:13;;;;;;;;;3.00;3.00;;;;;14.71;49.95;101888.22;4970461;28;45462;-80
2022/05/13 02:26:39;;;;;;;;;1.00;1.00;;;;;14.71;50.42;101891.75;4981977;28;45480;-80
2022/05/13 02:29:06;;;;;;;;;5.75;4.25;;;;;14.76;50.13;101897.03;4982061;28;46188;-80
2022/05/13 02:31:31;;;;;;;;;4.00;3.00;;;;;14.70;50.50;101887.34;4981803;28;45485;-80
2022/05/13 02:33:58;;;;;;;;;2.75;2.75;;;;;14.72;50.29;101903.22;4964142;28;45354;-80
2022/05/13 02:36:24;;;;;;;;;2.25;2.00;;;;;14.69;49.69;101895.28;4964405;28;45256;-80
2022/05/13 02:38:50;;;;;;;;;4.75;3.75;;;;;14.70;49.64;101895.28;4981672;28;45553;-80
2022/05/13 02:41:15;;;;;;;;;2.00;2.00;;;;;14.69;49.57;101882.03;4965219;28;45509;-79
2022/05/13 02:43:53;;;;;;;;;4.50;4.50;;;;;14.72;49.61;101888.19;4978741;28;45353;-79
2022/05/13 02:46:32;;;;;;;;;1.00;1.00;;;;;14.74;49.26;101891.72;4992918;28;45292;-80
2022/05/13 02:48:58;;;;;;;;;3.25;3.00;;;;;14.72;49.41;101890.84;4986736;28;45429;-80
2022/05/13 02:51:24;;;;;;;;;6.00;4.50;;;;;14.73;49.56;101891.75;4973449;28;45199;-80
2022/05/13 02:53:50;;;;;;;;;3.00;3.00;;;;;14.67;49.33;101879.38;4991440;28;45211;-80
2022/05/13 02:56:16;;;;;;;;;7.00;4.75;;;;;14.67;49.36;101886.44;4972175;28;45499;-80
2022/05/13 02:58:42;;;;;;;;;6.75;6.00;;;;;14.63;49.48;101890.00;4981343;28;47604;-80
2022/05/13 03:01:10;;;;;;;;;4.25;3.25;;;;;14.65;49.59;101893.50;4973437;28;45348;-80
2022/05/13 03:03:42;;;;;;;;;7.00;6.00;;;;;14.63;49.77;101892.66;4963767;28;45311;-80
2022/05/13 03:06:08;;;;;;;;;7.50;7.00;;;;;14.59;50.14;101890.88;4981225;28;45425;-80
2022/05/13 03:08:37;;;;;;;;;6.00;6.00;;;;;14.56;50.29;101891.75;4963536;28;47104;-80
2022/05/13 03:11:07;;;;;;;;;6.00;3.75;;;;;14.53;50.13;101889.13;4992649;28;45262;-80
2022/05/13 03:13:33;;;;;;;;;6.25;5.25;;;;;14.47;50.53;101884.69;4979786;28;45380;-79
2022/05/13 03:16:21;;;;;;;;;8.25;6.75;;;;;14.44;50.66;101879.41;4981005;28;45352;-80
2022/05/13 03:18:48;;;;;;;;;9.50;6.75;;;;;14.47;50.74;101894.41;4992337;28;45479;-80
2022/05/13 03:21:13;;;;;;;;;11.50;9.50;;;;;14.46;51.13;101892.63;4980903;28;45255;-80
2022/05/13 03:23:43;;;;;;;;;9.75;9.75;;;;;14.40;50.93;101884.69;4968612;28;45243;-81
2022/05/13 03:26:10;;;;;;;;;7.25;7.25;;;;;14.42;51.19;101882.94;4978955;28;45348;-80
2022/05/13 03:28:36;;;;;;;;;6.50;6.00;;;;;14.37;51.20;101877.63;4973450;28;48627;-80
2022/05/13 03:31:02;;;;;;;;;7.75;6.25;;;;;14.37;51.02;101884.69;4963363;28;45686;-81
2022/05/13 03:33:28;;;;;;;;;9.50;7.00;;;;;14.37;51.38;101884.69;4981573;28;45299;-80
2022/05/13 03:35:53;;;;;;;;;7.50;7.50;;;;;14.35;51.16;101887.34;4980712;28;45619;-80
2022/05/13 03:38:19;;;;;;;;;7.25;6.25;;;;;14.35;51.40;101882.03;4963202;28;47080;-80
2022/05/13 03:40:47;;;;;;;;;9.50;7.00;;;;;14.35;51.53;101892.63;4963264;28;45277;-81
2022/05/13 03:43:13;;;;;;;;;6.00;5.00;;;;;14.32;51.54;101885.56;4963437;28;45389;-80
2022/05/13 03:45:39;;;;;;;;;7.00;5.00;;;;;14.27;51.42;101883.81;4980507;28;45543;-80
2022/05/13 03:48:05;;;;;;;;;7.50;7.25;;;;;14.31;51.14;101893.53;4962582;28;47115;-80
2022/05/13 03:50:32;;;;;;;;;4.25;4.25;;;;;14.25;51.67;101885.59;4963012;28;45504;-80
2022/05/13 03:52:59;;;;;;;;;6.25;5.75;;;;;14.22;51.23;101888.22;4984914;28;45243;-80
2022/05/13 03:55:25;;;;;;;;;5.00;4.00;;;;;14.22;51.14;101893.53;4976960;28;45869;-80
2022/05/13 03:57:51;;;;;;;;;8.50;7.50;;;;;14.17;51.36;101896.19;4971231;28;47164;-80
2022/05/13 04:00:17;;;;;;;;;5.50;4.25;;;;;14.17;51.42;101890.03;4979016;28;45749;-81
2022/05/13 04:02:42;;;;;;;;;4.25;3.25;;;;;14.13;51.27;101892.63;4973199;28;45349;-80
2022/05/13 04:10:38;;;;;;;;;5.00;5.00;;;;;14.06;51.54;101897.94;4980371;28;45467;-80
2022/05/13 04:16:04;;;;;;;;;4.50;4.50;;;;;14.01;51.76;101883.84;4980262;28;45357;-80
2022/05/13 04:18:30;;;;;;;;;3.00;3.00;;;;;14.01;51.87;101890.00;4981541;28;47207;-80
2022/05/13 04:20:57;;;;;;;;;3.75;3.75;;;;;14.03;51.92;101900.59;4982256;28;45211;-80
2022/05/13 04:23:23;;;;;;;;;5.75;5.00;;;;;14.01;52.15;101900.59;4990309;28;45360;-80
2022/05/13 04:25:49;;;;;;;;;2.75;2.75;;;;;14.00;52.14;101901.47;4975240;28;45416;-80
2022/05/13 04:28:15;;;;;;;;;3.25;3.25;;;;;14.01;52.22;101910.31;4980596;28;46188;-80
2022/05/13 04:30:41;;;;;;;;;4.75;3.50;;;;;13.99;52.18;101901.47;4979985;28;45415;-80
2022/05/13 04:33:06;;;;;;;;;7.00;6.00;;;;;13.94;51.99;101912.06;4980234;28;45250;-80
2022/05/13 04:35:32;;;;;;;;;4.50;3.50;;;;;13.99;52.38;101920.00;4978687;28;45326;-81
2022/05/13 04:37:57;;;;;;;;;6.25;3.00;;;;;13.93;52.26;101918.25;4979841;28;45649;-80
2022/05/13 04:40:23;;;;;;;;;3.50;2.50;;;;;13.90;52.17;101913.81;4980066;28;45250;-80
2022/05/13 04:42:51;;;;;;;;;3.00;3.00;;;;;13.88;52.60;101910.28;4993071;28;45247;-80
2022/05/13 04:45:26;;;;;;;;;4.50;3.75;;;;;13.88;52.35;101918.22;4979652;28;45378;-79
2022/05/13 04:50:37;;;;;;;;;6.00;5.75;;;;;13.89;53.02;101921.75;4979702;28;45408;-79
2022/05/13 04:53:04;;;;;;;;;4.25;3.00;;;;;13.87;52.61;101924.41;4967035;28;45505;-81
2022/05/13 04:55:29;;;;;;;;;3.00;3.00;;;;;13.85;52.58;101917.34;4993327;28;45351;-80
2022/05/13 04:57:55;;;;;;;;;3.00;3.00;;;;;13.83;52.72;101933.22;4973603;28;47156;-83
2022/05/13 05:00:21;;;;;;;;;4.00;4.00;;;;;13.82;52.82;101934.13;4980952;28;45274;-81
2022/05/13 05:02:49;;;;;;;;;4.75;4.00;;;;;13.76;52.74;101928.78;4983464;28;45425;-82
2022/05/13 05:05:15;;;;;;;;;5.25;4.75;;;;;13.74;53.02;101927.91;4965525;28;45664;-82
2022/05/13 05:07:40;;;;;;;;;3.00;3.00;;;;;13.75;53.06;101934.97;4992013;28;47258;-83
2022/05/13 05:10:07;;;;;;;;;6.00;3.75;;;;;13.74;53.09;101933.22;4989686;28;45476;-82
2022/05/13 05:12:32;;;;;;;;;2.50;1.50;;;;;13.78;52.95;101942.91;4992426;28;45505;-82
2022/05/13 05:14:58;;;;;;;;;5.50;4.00;;;;;13.77;53.35;101948.22;4995711;28;45442;-81
2022/05/13 05:17:23;;;;;;;;;3.25;3.25;;;;;13.79;53.02;101950.00;4983009;28;46296;-81
2022/05/13 05:19:49;;;;;;;;;4.00;4.00;;;;;13.73;53.19;101946.44;4982817;28;45357;-81
2022/05/13 05:22:14;;;;;;;;;4.00;3.75;;;;;13.72;53.52;101948.19;4989953;28;45497;-82
2022/05/13 05:24:40;;;;;;;;;4.25;2.75;;;;;13.69;53.69;101948.19;4980668;28;45650;-82
2022/05/13 05:27:09;;;;;;;;;7.25;5.00;;;;;13.68;53.54;101951.69;4966238;28;48060;-82
2022/05/13 05:29:35;;;;;;;;;5.00;5.00;;;;;13.68;53.86;101962.28;4988246;28;45211;-82
2022/05/13 05:32:01;;;;;;;;;8.75;7.50;;;;;13.63;53.81;101957.00;4984914;28;45437;-83
2022/05/13 05:34:27;;;;;;;;;4.75;3.00;;;;;13.63;54.16;101964.03;4984152;28;45412;-82
2022/05/13 05:36:52;;;;;;;;;5.00;4.00;;;;;13.63;54.19;101956.09;4983522;28;45463;-82
2022/05/13 05:39:18;;;;;;;;;4.25;4.25;;;;;13.64;54.40;101961.41;4983123;28;45538;-84
2022/05/13 05:41:45;;;;;;;;;4.75;4.75;;;;;13.64;54.64;101974.63;4979573;28;45389;-83
2022/05/13 05:44:11;;;;;;;;;4.00;3.75;;;;;13.57;54.83;101961.38;4967025;28;45244;-83
2022/05/13 05:46:37;;;;;;;;;6.00;4.00;;;;;13.60;54.91;101978.13;4984572;28;45348;-84
2022/05/13 05:49:02;;;;;;;;;7.25;4.50;;;;;13.58;54.75;101968.41;4988012;28;45318;-83
2022/05/13 05:51:28;;;;;;;;;9.50;6.00;;;;;13.55;55.18;101982.56;4966598;28;45264;-84
2022/05/13 05:59:24;;;;;;;;;3.50;3.50;;;;;13.53;55.56;101988.72;4995052;28;45320;-83
2022/05/13 06:01:50;;;;;;;;;4.50;3.75;;;;;13.54;55.46;101991.34;4973524;28;45520;-83
2022/05/13 06:04:15;;;;;;;;;4.25;2.00;;;;;13.51;55.76;101983.41;4993065;28;45176;-82
2022/05/13 06:06:41;;;;;;;;;2.50;2.50;;;;;13.51;55.91;101991.34;4964394;28;46942;-83
2022/05/13 06:09:08;;;;;;;;;5.50;4.50;;;;;13.58;56.03;101997.53;4977027;28;45411;-83
2022/05/13 06:11:34;;;;;;;;;5.50;4.25;;;;;13.58;55.83;102002.81;4980345;28;45429;-84
2022/05/13 06:13:59;;;;;;;;;2.25;2.25;;;;;13.53;55.97;102000.19;4964722;28;45481;-83
2022/05/13 06:16:27;;;;;;;;;4.00;3.00;;;;;13.59;56.34;102004.59;4963800;28;46786;-83
2022/05/13 06:18:54;;;;;;;;;3.00;3.00;;;;;13.60;56.15;102001.94;4982651;28;45314;-83
2022/05/13 06:21:20;;;;;;;;;2.75;2.25;;;;;13.65;56.42;102004.63;4982005;28;45256;-83
2022/05/13 06:23:46;;;;;;;;;4.00;3.75;;;;;13.63;56.35;102009.94;4991592;28;45354;-82
2022/05/13 06:26:12;;;;;;;;;3.00;3.00;;;;;13.62;56.30;102005.50;4966932;28;45927;-82
2022/05/13 06:28:38;;;;;;;;;4.00;3.00;;;;;13.68;56.26;102005.53;4974493;28;45738;-82
2022/05/13 06:31:03;;;;;;;;;3.75;3.75;;;;;13.69;56.48;102014.34;4964204;28;45374;-82
2022/05/13 06:33:29;;;;;;;;;6.00;3.75;;;;;13.67;56.53;102005.53;4981486;28;45604;-83
2022/05/13 06:35:54;;;;;;;;;4.50;4.00;;;;;13.70;56.68;102005.53;4981602;28;46457;-83
2022/05/13 06:38:22;;;;;;;;;5.00;5.00;;;;;13.76;56.71;102018.78;4970550;28;45239;-83
2022/05/13 06:40:54;;;;;;;;;5.00;5.00;;;;;13.81;56.83;102022.31;4967381;28;45290;-82
2022/05/13 06:43:26;;;;;;;;;5.25;2.50;;;;;13.83;56.56;102028.50;4983307;28;45505;-83
2022/05/13 06:45:52;;;;;;;;;3.00;3.00;;;;;13.81;56.80;102009.09;4982644;28;45604;-82
2022/05/13 06:48:18;;;;;;;;;3.75;3.00;;;;;13.90;56.73;102017.06;4963373;28;45468;-83
2022/05/13 06:50:46;;;;;;;;;3.75;2.00;;;;;13.95;57.01;102013.53;4981286;28;45434;-83
2022/05/13 06:53:12;;;;;;;;;3.00;3.00;;;;;14.02;56.89;102031.22;4988569;28;45282;-82
2022/05/13 06:55:39;;;;;;;;;6.00;6.00;;;;;14.05;56.65;102032.09;4976332;28;48186;-83
2022/05/13 06:58:05;;;;;;;;;6.75;6.00;;;;;14.08;56.56;102032.09;4974451;28;45639;-83
2022/05/13 07:00:31;;;;;;;;;3.50;3.00;;;;;14.10;56.29;102030.34;5000382;28;45464;-83
2022/05/13 07:02:56;;;;;;;;;4.00;4.00;;;;;14.16;56.16;102029.47;4989364;28;45621;-83
2022/05/13 07:05:23;;;;;;;;;4.25;4.25;;;;;14.22;56.51;102032.16;4976202;28;47521;-81
2022/05/13 07:07:49;;;;;;;;;4.75;4.75;;;;;14.32;56.35;102033.91;4981314;28;45417;-79
2022/05/13 07:10:14;;;;;;;;;5.25;4.75;;;;;14.38;56.00;102026.88;4993865;28;45427;-80
2022/05/13 07:12:40;;;;;;;;;5.00;4.00;;;;;14.48;55.75;102036.59;4981117;28;45369;-81
2022/05/13 07:15:10;;;;;;;;;5.75;4.50;;;;;14.57;55.51;102036.66;4985890;28;46532;-81
2022/05/13 07:17:37;;;;;;;;;3.50;3.00;;;;;14.64;55.38;102038.41;4970243;28;45472;-83
2022/05/13 07:20:03;;;;;;;;;4.00;4.00;;;;;14.70;54.97;102033.13;4963333;28;45481;-79
2022/05/13 07:22:29;;;;;;;;;5.00;5.00;;;;;14.79;54.78;102034.88;4961894;28;45532;-81
2022/05/13 07:24:58;;;;;;;;;6.00;5.75;;;;;14.90;54.61;102046.38;4983059;28;47386;-82
2022/05/13 07:27:23;;;;;;;;;3.50;3.00;;;;;14.95;54.64;102033.97;4969698;28;46169;-81
2022/05/13 07:29:48;;;;;;;;;3.50;3.50;;;;;15.06;54.12;102039.28;4962748;28;45294;-80
2022/05/13 07:32:14;;;;;;;;;3.75;2.25;;;;;15.16;53.88;102043.69;4962920;28;45277;-81
2022/05/13 07:35:02;;;;;;;;;2.25;2.25;;;;;15.24;53.34;102040.16;4962739;28;47070;-80
2022/05/13 07:37:27;;;;;;;;;3.25;3.25;;;;;15.32;53.73;102044.53;4975567;28;45880;-81
2022/05/13 07:42:39;;;;;;;;;5.50;5.00;;;;;15.48;52.94;102039.19;4980123;28;45382;-80
2022/05/13 07:45:05;;;;;;;;;2.25;2.25;;;;;15.56;52.82;102045.38;4962535;28;48306;-81
2022/05/13 07:47:31;;;;;;;;;1.00;1.00;;;;;15.60;52.51;102047.09;4980217;28;45352;-82
2022/05/13 07:49:58;;;;;;;;;4.25;4.25;;;;;15.65;52.31;102051.50;4962740;28;45335;-82
2022/05/13 07:52:26;;;;;;;;;5.50;5.50;;;;;15.68;52.43;102045.28;4981910;28;45630;-81
2022/05/13 07:54:51;;;;;;;;;4.00;4.00;;;;;15.76;52.03;102055.94;4985924;28;46395;-81
2022/05/13 07:57:17;;;;;;;;;3.00;3.00;;;;;15.81;52.25;102056.78;4980291;28;45476;-82
2022/05/13 08:02:27;;;;;;;;;1.25;1.25;;;;;15.94;51.53;102055.84;4980651;28;45274;-82
2022/05/13 08:04:52;;;;;;;;;7.00;4.00;;;;;16.02;51.75;102043.41;4962242;28;46744;-82
2022/05/13 08:07:18;;;;;;;;;4.00;4.00;;;;;16.10;52.19;102046.03;4962539;28;45392;-82
2022/05/13 08:09:44;;;;;;;;;3.50;3.50;;;;;16.22;51.84;102048.59;4962619;28;45406;-82
2022/05/13 08:12:09;;;;;;;;;5.00;5.00;;;;;16.29;51.34;102058.31;4980243;28;45550;-82
2022/05/13 08:14:35;;;;;;;;;2.50;2.00;;;;;16.36;51.04;102050.28;4992697;28;46277;-82
2022/05/13 08:17:04;;;;;;;;;6.25;4.50;;;;;16.42;50.96;102053.78;4980107;28;45367;-83
2022/05/13 08:19:29;;;;;;;;;3.75;3.00;;;;;16.48;50.70;102039.56;4980053;28;45349;-82
2022/05/13 08:21:55;;;;;;;;;3.50;3.00;;;;;16.53;50.73;102043.97;4962602;28;45699;-82
2022/05/13 08:24:20;;;;;;;;;3.25;3.25;;;;;16.62;50.53;102044.78;4962351;28;47281;-82
2022/05/13 08:26:46;;;;;;;;;4.00;4.00;;;;;16.68;50.71;102035.00;4962735;28;45540;-83
2022/05/13 08:29:11;;;;;;;;;3.50;3.50;;;;;16.78;50.37;102041.13;4973393;28;45390;-82
2022/05/13 08:31:37;;;;;;;;;4.00;3.25;;;;;16.88;50.19;102036.63;4962387;28;45383;-82
2022/05/13 08:34:02;;;;;;;;;3.50;3.00;;;;;16.97;50.42;102036.53;4963999;28;47403;-82
2022/05/13 08:36:28;;;;;;;;;5.00;4.25;;;;;17.12;50.24;102035.50;4983286;28;45412;-83
2022/05/13 08:38:53;;;;;;;;;4.50;2.75;;;;;17.19;49.78;102047.88;4983029;28;45436;-82
2022/05/13 08:41:35;;;;;;;;;4.75;4.75;;;;;17.23;49.52;102038.94;4970515;28;45362;-82
2022/05/13 08:44:07;;;;;;;;;2.00;1.00;;;;;17.25;49.42;102036.25;4965182;28;46193;-82
2022/05/13 08:46:40;;;;;;;;;2.75;2.75;;;;;17.29;48.89;102038.84;4966433;28;45218;-82
2022/05/13 08:49:08;;;;;;;;;5.33;4.00;;;;;17.30;48.28;102042.44;4965954;28;45421;-82
2022/05/13 08:51:48;;;;;;;;;2.67;2.00;;;;;17.30;47.89;102047.75;4965984;28;45402;-82
2022/05/13 08:54:17;;;;;;;;;2.00;2.00;;;;;17.23;46.85;102051.38;4979688;28;46200;-82
2022/05/13 08:56:52;;;;;;;;;2.00;2.00;;;;;17.20;47.18;102050.50;4969715;28;45409;-82
2022/05/13 08:59:27;;;;;;;;;1.67;1.67;;;;;17.25;46.15;102037.13;4994730;28;45227;-82
2022/05/13 09:02:05;;;;;;;;;3.00;3.00;;;;;17.36;45.72;102045.88;4996842;28;45469;-82
2022/05/13 09:05:19;;;;;;;;;2.00;1.00;;;;;17.45;45.61;102033.38;4967530;28;46718;-84
2022/05/13 09:12:11;;;;;;;;;2.00;2.00;;;;;17.74;43.38;102044.53;4968338;28;45499;-87
2022/05/13 09:21:43;;;;;;;;;2.00;2.00;;;;;18.11;43.00;102040.56;5973097;22;47259;-87
2022/05/13 09:30:16;;;;;;;;;2.33;2.33;;;;;18.23;42.58;102035.03;5157092;22;45503;-89
2022/05/13 09:49:20;;;;;;;;;;;;;;;;;;;;;
2022/05/13 10:37:39;;;;;;;;;3.25;2.00;;;;;19.71;38.80;102007.50;4863304;29;45302;-81
2022/05/13 10:40:12;;;;;;;;;2.33;1.67;;;;;19.90;39.03;102008.00;4887220;28;45628;-84
2022/05/13 10:42:42;;;;;;;;;3.25;3.25;;;;;20.07;38.58;101998.69;4962978;28;48450;-84
2022/05/13 10:45:20;;;;;;;;;2.00;2.00;;;;;20.19;38.09;101993.94;4971052;28;45424;-84
2022/05/13 10:48:05;;;;;;;;;1.00;1.00;;;;;20.35;37.80;101993.59;4969878;28;45539;-83
2022/05/13 10:51:12;;;;;;;;;1.00;1.00;;;;;20.52;38.47;101991.34;4972981;28;45615;-84
2022/05/13 10:54:08;;;;;;;;;2.00;2.00;;;;;20.73;38.09;101987.28;4963662;28;46240;-84
2022/05/13 10:56:47;;;;;;;;;1.00;1.00;;;;;20.84;37.33;101984.34;4980186;28;45360;-84
2022/05/13 10:59:36;;;;;;;;;2.00;1.00;;;;;21.00;37.14;101977.63;4967725;28;45402;-84
2022/05/13 11:02:33;;;;;;;;;1.67;1.67;;;;;21.13;36.44;101986.22;4968691;28;45271;-83
2022/05/13 11:05:10;;;;;;;;;2.33;2.00;;;;;21.22;36.08;101983.25;4967105;28;48222;-82
2022/05/13 11:07:57;;;;;;;;;2.00;2.00;;;;;21.33;35.67;101980.28;4972575;28;45365;-83
2022/05/13 11:11:02;;;;;;;;;1.67;1.67;;;;;21.38;35.27;101978.38;4962816;28;45456;-83
2022/05/13 11:13:41;;;;;;;;;2.00;2.00;;;;;21.36;35.88;101982.91;4967300;28;45452;-83
2022/05/13 11:16:27;;;;;;;;;4.00;1.67;;;;;21.36;35.22;101982.91;4956177;28;46073;-82
2022/05/13 11:19:17;;;;;;;;;0.00;0.00;;;;;21.30;35.42;101983.97;4976009;28;45567;-82
2022/05/13 11:22:17;;;;;;;;;1.33;1.33;;;;;21.39;35.73;101981.97;4992424;28;45578;-82
2022/05/13 11:31:52;;;;;;;;;1.00;0.67;;;;;21.76;35.04;101966.53;4985122;28;45524;-84
2022/05/13 11:34:42;;;;;;;;;2.33;2.33;;;;;21.78;34.99;101970.06;4979236;28;45290;-82
2022/05/13 11:37:33;;;;;;;;;7.00;2.67;;;;;21.81;34.93;101963.69;4979468;28;45438;-82
2022/05/13 11:43:56;;;;;;;;;;;;;;;;;;;;;
2022/05/13 12:19:17;;;;;;;;;3.33;3.33;;;;;22.71;33.04;101949.13;4674582;30;45591;-82
2022/05/13 12:22:05;;;;;;;;;2.67;2.67;;;;;22.69;33.03;101942.94;4609568;30;47063;-82
2022/05/13 12:25:00;;;;;;;;;2.00;2.00;;;;;22.73;32.76;101946.41;4754139;28;45496;-81
2022/05/13 12:27:38;;;;;;;;;1.33;1.33;;;;;22.74;32.35;101940.97;4949758;28;45499;-82
2022/05/13 12:30:30;;;;;;;;;3.33;2.00;;;;;22.78;32.72;101934.56;4948968;28;45492;-83
2022/05/13 12:33:19;;;;;;;;;1.00;1.00;;;;;22.97;31.87;101939.31;4945711;28;47639;-83
2022/05/13 12:39:12;;;;;;;;;2.75;2.75;;;;;23.25;32.13;101926.56;4958500;28;45397;-83
2022/05/13 12:41:44;;;;;;;;;2.00;1.00;;;;;23.34;31.74;101928.94;4948475;28;45767;-83
2022/05/13 12:44:23;;;;;;;;;3.00;2.00;;;;;23.42;31.37;101925.09;4946068;28;45335;-81
2022/05/13 12:46:49;;;;;;;;;0.00;0.00;;;;;23.43;31.71;101916.06;4946060;28;45455;-81
2022/05/13 12:49:27;;;;;;;;;2.00;2.00;;;;;23.50;31.34;101914.91;4963261;28;45570;-81
2022/05/13 12:52:00;;;;;;;;;3.00;3.00;;;;;23.64;31.88;101914.38;4942655;28;45707;-81
2022/05/13 12:54:41;;;;;;;;;;;;;;;;;;;;;
2022/05/13 12:57:15;;;;;;;;;2.00;2.00;;;;;23.69;31.07;101901.63;4954608;28;72307;-83
2022/05/13 12:59:48;;;;;;;;;1.00;1.00;;;;;23.75;31.23;101904.94;4957536;28;45285;-83
2022/05/13 13:02:21;;;;;;;;;2.00;2.00;;;;;23.77;30.96;101910.28;4956654;28;45341;-83
2022/05/13 13:50:33;;;;;;;;;0.33;0.00;;;;;24.72;29.50;101879.34;4995259;28;45533;-85
2022/05/13 13:54:08;;;;;;;;;;;;;;;;;;;;;
2022/05/13 13:57:21;;;;;;;;;;;;;;;;;;;;;
2022/05/13 14:04:11;;;;;;;;;1.67;1.67;;;;;25.02;29.38;101863.59;4900341;28;45431;-83
2022/05/13 14:06:37;;;;;;;;;1.00;1.00;;;;;25.08;29.53;101870.53;4869417;29;47325;-81
2022/05/13 14:09:07;;;;;;;;;2.00;1.00;;;;;25.09;29.84;101859.66;4900366;29;45541;-81
2022/05/13 14:11:36;;;;;;;;;0.67;0.67;;;;;25.12;29.65;101868.56;4980897;28;45449;-83
2022/05/13 14:23:17;;;;;;;;;2.00;2.00;;;;;25.11;28.75;101850.66;5181015;22;45292;-84
2022/05/13 14:32:47;;;;;;;;;1.00;1.00;;;;;25.38;28.82;101854.75;4922093;28;45486;-84
2022/05/13 14:35:30;;;;;;;;;0.00;0.00;;;;;25.45;28.95;101855.34;4950256;28;45459;-82
2022/05/13 14:38:07;;;;;;;;;1.00;1.00;;;;;25.52;28.83;101854.06;4930294;28;45516;-85
2022/05/13 14:40:42;;;;;;;;;2.33;2.33;;;;;25.55;28.53;101848.53;4941782;28;47163;-86
2022/05/13 14:43:12;;;;;;;;;2.00;2.00;;;;;25.60;28.61;101843.78;5000270;28;45448;-84
2022/05/13 14:45:41;;;;;;;;;1.00;1.00;;;;;25.70;28.46;101837.00;4973134;28;45369;-85
2022/05/13 14:48:26;;;;;;;;;2.00;2.00;;;;;25.80;28.84;101840.13;4980936;28;45461;-89
2022/05/13 14:51:05;;;;;;;;;1.00;1.00;;;;;25.82;28.25;101837.31;4988551;28;45216;-83
2022/05/13 14:54:20;;;;;;;;;3.00;2.33;;;;;25.92;28.68;101834.09;4969684;28;45511;-88
2022/05/13 14:56:58;;;;;;;;;2.00;1.00;;;;;26.03;28.55;101830.88;4981185;28;45227;-88
2022/05/13 15:00:19;;;;;;;;;2.00;1.00;;;;;26.08;27.13;101838.72;4968848;28;45325;-86
2022/05/13 15:10:35;;;;;;;;;;;;;;;;;;;;;
2022/05/13 15:13:14;;;;;;;;;;;;;;;;;;;;;
2022/05/13 15:16:33;;;;;;;;;;;;;;;;;;;;;
2022/05/13 15:19:24;;;;;;;;;;;;;;;;;;;;;
2022/05/13 15:22:22;;;;;;;;;;;;;;;;;;;;;
2022/05/13 15:28:10;;;;;;;;;1.00;1.00;;;;;26.54;27.32;101822.84;4971494;28;46705;-86
2022/05/13 15:30:56;;;;;;;;;4.33;3.00;;;;;26.60;27.14;101836.03;4961890;28;45522;-88
2022/05/13 15:33:24;;;;;;;;;2.67;1.00;;;;;26.59;26.67;101827.03;4961902;28;45354;-87
2022/05/13 15:35:51;;;;;;;;;1.00;1.00;;;;;26.67;26.92;101826.63;4961969;28;45429;-86
2022/05/13 15:38:17;;;;;;;;;1.33;1.33;;;;;26.73;26.54;101817.31;4978749;28;45562;-83
2022/05/13 15:40:43;;;;;;;;;0.00;0.00;;;;;26.72;26.34;101824.56;4979702;28;45278;-83
2022/05/13 15:43:09;;;;;;;;;0.67;0.67;;;;;26.71;26.36;101825.53;4960876;28;45324;-82
2022/05/13 15:45:40;;;;;;;;;1.00;1.00;;;;;26.71;26.69;101819.25;4961532;28;45324;-83